»·PEaware :: UAL1833 KPDX-KSFO

UAL1833 :: KPDX-KSFO

FLIGHT INFORMATION

Flight Status: Arrived
Operator:
United Airlines
More flights by this operator :: More flights under this callsign
Pilot: John C. (18682)
Aircraft: BOEING 737-800
(B738)
More flights by this aircraft type
Origin: KPDX Portland Intl
United States
Destination: KSFO San Francisco Intl
United States
More flights between these airports :: More routes between these airports
Route: MINNE5 EASON Q1 ENVIE MLBEC BDEGA3
File this flight plan on PilotEdge
Remarks:
Altitude:
(Current/Filed)
33,000ft
Speed:
(Current/Filed)
449kts
Departed: 24-May-19 01:19 PM
Arrived: 24-May-19 02:40 PM
Distance/Time
Traveled:
478nm/1:21
Distance/Time
To Go:
Arrived

Flight Plot

Page will automatically refresh every two minutes.

Flight plan parsing failed; only flown route is shown


Map Options




Map Legend


Flown Route
Filed Route
Departure Airport
Arrival Airport
Navaid (VOR, NDB)
Fix

Horizontal Profiles

Position Reports

Time Latitude Longitude Heading Altitude Ground
Speed
24-May-19 12:56 45.590065 -122.591041 208 37ft 0kts
24-May-19 12:57 45.590065 -122.591041 208 37ft 0kts
24-May-19 12:58 45.590065 -122.591041 208 37ft 0kts
24-May-19 12:59 45.590065 -122.591041 208 37ft 0kts
24-May-19 13:00 45.590065 -122.591041 208 37ft 0kts
24-May-19 13:01 45.590065 -122.591041 208 37ft 0kts
24-May-19 13:02 45.590065 -122.591041 208 37ft 0kts
24-May-19 13:03 45.590065 -122.591041 208 36ft 0kts
24-May-19 13:04 45.590065 -122.591041 208 36ft 0kts
24-May-19 13:05 45.590065 -122.591041 208 36ft 0kts
24-May-19 13:06 45.590065 -122.591041 208 36ft 0kts
24-May-19 13:07 45.590065 -122.591041 208 36ft 0kts
24-May-19 13:08 45.590066 -122.591040 208 37ft 0kts
24-May-19 13:09 45.590135 -122.590987 207 37ft 2kts
24-May-19 13:10 45.590622 -122.590619 184 37ft 2kts
24-May-19 13:11 45.590852 -122.590842 117 37ft 0kts
24-May-19 13:12 45.590852 -122.590842 117 36ft 0kts
24-May-19 13:13 45.590852 -122.590842 117 36ft 0kts
24-May-19 13:14 45.589568 -122.586460 85 37ft 13kts
24-May-19 13:15 45.587161 -122.579242 119 36ft 27kts
24-May-19 13:16 45.583790 -122.570574 118 37ft 23kts
24-May-19 13:17 45.582783 -122.567345 62 37ft 2kts
24-May-19 13:18 45.586737 -122.574926 298 37ft 108kts
24-May-19 13:19 45.607032 -122.630296 296 1635ft 176kts
24-May-19 13:20 45.631427 -122.708084 301 2931ft 251kts
24-May-19 13:21 45.666743 -122.796140 289 5908ft 259kts
24-May-19 13:22 45.649824 -122.893316 228 8684ft 276kts
24-May-19 13:23 45.574523 -122.928902 187 10596ft 323kts
24-May-19 13:24 45.480678 -122.938766 188 12709ft 348kts
24-May-19 13:25 45.382120 -122.950244 188 15325ft 362kts
24-May-19 13:26 45.279594 -122.962161 187 17878ft 377kts
24-May-19 13:27 45.175868 -122.990412 205 20172ft 385kts
24-May-19 13:28 45.073123 -123.043953 204 22253ft 401kts
24-May-19 13:29 44.965920 -123.097737 205 24194ft 415kts
24-May-19 13:30 44.862127 -123.149662 205 25778ft 429kts
24-May-19 13:31 44.747713 -123.206653 205 27402ft 441kts
24-May-19 13:32 44.630293 -123.264900 205 28885ft 452kts
24-May-19 13:33 44.507586 -123.317217 197 30219ft 469kts
24-May-19 13:34 44.374153 -123.324070 182 31704ft 484kts
24-May-19 13:35 44.239303 -123.318402 182 33085ft 488kts
24-May-19 13:36 44.101318 -123.312884 182 33103ft 496kts
24-May-19 13:37 43.962883 -123.307411 182 33105ft 496kts
24-May-19 13:38 43.825483 -123.301985 182 33094ft 497kts
24-May-19 13:39 43.687492 -123.296554 182 33102ft 495kts
24-May-19 13:40 43.549055 -123.291118 182 33103ft 496kts
24-May-19 13:41 43.410594 -123.285700 182 33108ft 496kts
24-May-19 13:42 43.272330 -123.280329 182 33108ft 497kts
24-May-19 13:43 43.133785 -123.275027 182 33113ft 496kts
24-May-19 13:44 42.995671 -123.269726 182 33114ft 494kts
24-May-19 13:45 42.862519 -123.264602 182 33102ft 484kts
24-May-19 13:46 42.726621 -123.259429 182 33085ft 487kts
24-May-19 13:47 42.591225 -123.254322 182 33064ft 486kts
24-May-19 13:48 42.455681 -123.249174 182 33054ft 487kts
24-May-19 13:49 42.319806 -123.244237 182 33052ft 487kts
24-May-19 13:50 42.184848 -123.239268 182 33056ft 486kts
24-May-19 13:51 42.049149 -123.234297 182 33060ft 487kts
24-May-19 13:52 41.913633 -123.229345 183 33058ft 485kts
24-May-19 13:53 41.778181 -123.224419 182 33054ft 489kts
24-May-19 13:54 41.642922 -123.219492 182 33074ft 485kts
24-May-19 13:55 41.507202 -123.214734 182 33084ft 485kts
24-May-19 13:56 41.371360 -123.210152 182 33082ft 487kts
24-May-19 13:57 41.235643 -123.198495 179 33078ft 489kts
24-May-19 13:58 41.104460 -123.184658 179 33078ft 489kts
24-May-19 13:59 40.969905 -123.170473 178 33051ft 479kts
24-May-19 14:00 40.841186 -123.157179 178 33037ft 480kts
24-May-19 14:01 40.707768 -123.143332 178 33032ft 479kts
24-May-19 14:02 40.574881 -123.129643 178 33029ft 479kts
24-May-19 14:03 40.441352 -123.115864 178 33026ft 479kts
24-May-19 14:04 40.308083 -123.102241 178 33026ft 479kts
24-May-19 14:05 40.175068 -123.088687 178 33042ft 478kts
24-May-19 14:06 40.042162 -123.075164 178 33056ft 478kts
24-May-19 14:07 39.909470 -123.061767 179 33062ft 477kts
24-May-19 14:08 39.779357 -123.048621 179 33057ft 478kts
24-May-19 14:09 39.646642 -123.035329 179 33061ft 475kts
24-May-19 14:10 39.514994 -123.022145 179 33037ft 474kts
24-May-19 14:12 39.382622 -123.008999 179 33036ft 475kts
24-May-19 14:13 39.250568 -122.995834 179 33040ft 474kts
24-May-19 14:14 39.119134 -122.982854 179 33040ft 473kts
24-May-19 14:15 38.987788 -122.969950 179 33041ft 472kts
24-May-19 14:16 38.872146 -122.957013 174 33052ft 474kts
24-May-19 14:17 38.741319 -122.919492 169 32739ft 480kts
24-May-19 14:18 38.609212 -122.880368 168 29317ft 485kts
24-May-19 14:19 38.481901 -122.842883 168 28045ft 447kts
24-May-19 14:20 38.362529 -122.807850 168 25525ft 448kts
24-May-19 14:21 38.241839 -122.772501 167 22700ft 440kts
24-May-19 14:22 38.124152 -122.738287 167 19986ft 428kts
24-May-19 14:23 38.014640 -122.706510 167 17373ft 416kts
24-May-19 14:24 37.905644 -122.669516 153 14722ft 386kts
24-May-19 14:25 37.826897 -122.596754 138 13172ft 338kts
24-May-19 14:26 37.755855 -122.521084 138 11780ft 318kts
24-May-19 14:27 37.689929 -122.451101 138 11029ft 303kts
24-May-19 14:28 37.625450 -122.383002 138 10143ft 299kts
24-May-19 14:29 37.565929 -122.320338 139 9020ft 273kts
24-May-19 14:30 37.508551 -122.259306 139 7361ft 265kts
24-May-19 14:31 37.455840 -122.203131 139 5708ft 238kts
24-May-19 14:31 37.413952 -122.159281 139 5029ft 234kts
24-May-19 14:33 37.413739 -122.087660 11 5029ft 218kts
24-May-19 14:34 37.466045 -122.121886 323 4532ft 215kts
24-May-19 14:34 37.505489 -122.160344 323 3552ft 213kts
24-May-19 14:36 37.554369 -122.220135 296 2147ft 208kts
24-May-19 14:36 37.574128 -122.269693 297 1426ft 176kts
24-May-19 14:37 37.595000 -122.319169 300 726ft 147kts
24-May-19 14:39 37.616622 -122.370047 299 11ft 87kts
24-May-19 14:39 37.619547 -122.379493 235 29ft 9kts
24-May-19 14:40 37.620584 -122.384165 295 30ft 14kts
24-May-19 14:41 37.618934 -122.385949 170 30ft 0kts

Navigation Log

Ident Type
Flight plan parsing failed, navigation log unavailable